Randolph, Mississippi
Current Conditions -  °F | °C
As of 9:55 PM on Saturday 22 Nov 2014 (Local Time) from KUOX Reporting Station
Few Clouds Few Clouds  
Wind Chill: 55°   Ceiling: Unl
Heat Index: 55°   Visibility: 10mi
Dew Point: 46°   Wind: 3mph
Humidity: 72%   Direction: 130°SE
Pressure: 30.02"   Gusts: NA
Location:  34.18°N, 89.17°W
Report Text: KUOX 230355Z AUTO 13003KT 10SM FEW036 13/08 A3002 RMK AO2 PWINO PNO
Loading
Personal Weather Stations






























Interactive Weather Map New forecast layout! Learn more

10-Day Weather Forecast

Advertisements
Track Severe Weather on mobile